Колянур

Карта отелей и гостиниц, располагающихся рядом с аэропортом Колянур :

Колянур Марий Эл 56° 49' 8.58" N, 48° 33' 11.4012" E
Код аэродрома ИКАО
ZEP8
Код аэродрома RU
ЗЕП8
Координаты
N56.81905° E048.55317°
Превышение над уровнем моря
160
Основная полоса
01/19
Курс магнитный
014,2/194,2
Длина основной ВПП
445
Ширина основной ВПП
20
Покрытие основной ВПП
Твёрдое (асфальт)
Освещение ВПП
Нет
Тип: 
Аэродром
Класс аэродрома: 
Принадлежность: 
ГА
Статус: 
Недействующий
Сайт: 
E-mail аэродрома: 
Страна: 
Россия
Регион: 
Марий Эл
Город: 
Дополнительная информация: 
Бывшая площадка АХР.

Найти трансфер

С помощью этой формы Вы можете найти трансфер из аэропорта Колянур в город, аэропорт или вокзал:

Карта места

Javascript is required to view this map.

Погода в аэропортах:

Авиационная погода в Гомеле

Регион: 
Погода METAR: 
UMGG 170900Z 33004MPS 6000 -SHSN OVC045CB M16/M19 Q1014 R28/450535 NOSIG
Время наблюдения
2021-01-17T09:00:00Z
Температура C
-16.0
Точка росы
-19.0
Направление ветра
330
Скорость ветра (узлы)
8
Метео видимость
3.73
Явления погоды
-SHSN
Условия полета
MVFR
Аэропорт подробнее: 

Авиационная погода в Сочи

Регион: 
Погода METAR: 
URSS 170900Z 21004MPS 180V250 8000 -SHRA OVC050CB 11/09 Q0999 WS ALL RWY R06/220255 R02/220255 NOSIG RMK QFE749 R02/21004G08MPS QFE749
Время наблюдения
2021-01-17T09:00:00Z
Температура C
11.0
Точка росы
9.0
Направление ветра
210
Скорость ветра (узлы)
8
Метео видимость
4.97
Явления погоды
-SHRA
Условия полета
MVFR
Аэропорт подробнее: 

Авиационная погода в Елизово

Регион: 
Погода METAR: 
UHPP 170900Z 29010G15MPS 6000 -SHSN DRSN OVC031CB M04/M06 Q0983 R34L/350135 NOSIG RMK QFE734/0979
Время наблюдения
2021-01-17T09:00:00Z
Температура C
-4.0
Точка росы
-6.0
Направление ветра
290
Скорость ветра (узлы)
19
Метео видимость
3.73
Явления погоды
-SHSN DRSN
Условия полета
MVFR
Аэропорт подробнее: 

Авиационная погода в Нальчике

Регион: 
Погода METAR: 
URMN 170900Z 10003MPS 0300 -FZDZ FZFG VV001 M01/M01 Q1004 R24/210250 NOSIG RMK QBB030 MT OBSC OBST OBSC QFE716
Время наблюдения
2021-01-17T09:00:00Z
Температура C
-1.0
Точка росы
-1.0
Направление ветра
100
Скорость ветра (узлы)
6
Метео видимость
0.19
Явления погоды
-FZDZ FZFG
Условия полета
LIFR
Аэропорт подробнее: